createdAt,value
2024-04-24T00:02:04.574Z,5.45
2024-04-24T00:04:34.887Z,5.22
2024-04-24T00:07:05.327Z,5.20
2024-04-24T00:09:35.755Z,4.95
2024-04-24T00:12:06.341Z,5.10
2024-04-24T00:14:39.392Z,5.43
2024-04-24T00:17:09.798Z,5.38
2024-04-24T00:19:40.140Z,5.50
2024-04-24T00:22:10.679Z,5.15
2024-04-24T00:24:40.981Z,5.20
2024-04-24T00:27:11.309Z,5.43
2024-04-24T00:29:44.327Z,5.68
2024-04-24T00:32:14.775Z,5.50
2024-04-24T00:34:45.173Z,5.32
2024-04-24T00:37:15.766Z,5.72
2024-04-24T00:39:51.021Z,5.38
2024-04-24T00:42:23.118Z,5.45
2024-04-24T00:44:56.252Z,5.30
2024-04-24T00:47:27.254Z,6.25
2024-04-24T00:49:57.992Z,5.28
2024-04-24T00:52:28.555Z,6.55
2024-04-24T00:54:58.984Z,5.95
2024-04-24T00:57:29.500Z,6.22
2024-04-24T01:00:02.733Z,5.93
2024-04-24T01:02:34.448Z,5.93
2024-04-24T01:05:04.921Z,6.05
2024-04-24T01:07:37.235Z,6.22
2024-04-24T01:10:17.140Z,5.93
2024-04-24T01:12:51.514Z,7.30
2024-04-24T01:15:24.781Z,6.30
2024-04-24T01:17:58.332Z,6.00
2024-04-24T01:20:31.543Z,6.72
2024-04-24T01:23:21.275Z,6.78
2024-04-24T01:25:57.610Z,6.88
2024-04-24T01:28:30.670Z,6.68
2024-04-24T01:31:01.007Z,7.22
2024-04-24T01:33:31.342Z,7.20
2024-04-24T01:35:59.066Z,7.25
2024-04-24T01:38:29.435Z,6.93
2024-04-24T01:41:00.059Z,6.97
2024-04-24T01:43:36.225Z,7.20
2024-04-24T01:46:06.979Z,7.85
2024-04-24T01:48:37.590Z,7.40
2024-04-24T01:51:08.614Z,7.00
2024-04-24T01:53:39.118Z,6.70
2024-04-24T01:56:09.838Z,7.53
2024-04-24T01:58:42.940Z,7.65
2024-04-24T02:01:13.334Z,8.50
2024-04-24T02:03:43.740Z,8.05
2024-04-24T02:06:14.135Z,8.27
2024-04-24T02:08:44.481Z,8.57
2024-04-24T02:11:19.508Z,7.90
2024-04-24T02:13:52.709Z,8.32
2024-04-24T02:16:23.295Z,7.97
2024-04-24T02:18:53.762Z,8.18
2024-04-24T02:21:24.140Z,8.73
2024-04-24T02:23:54.497Z,8.63
2024-04-24T02:26:22.418Z,8.68
2024-04-24T02:28:55.666Z,8.75
2024-04-24T02:31:26.083Z,8.30
2024-04-24T02:33:56.421Z,8.63
2024-04-24T02:36:26.809Z,9.00
2024-04-24T02:38:57.189Z,8.98
2024-04-24T02:41:27.589Z,8.90
2024-04-24T02:44:00.846Z,8.88
2024-04-24T02:46:31.232Z,9.32
2024-04-24T02:49:01.582Z,9.18
2024-04-24T02:51:31.989Z,9.02
2024-04-24T02:54:02.339Z,9.82
2024-04-24T02:56:32.705Z,8.98
2024-04-24T02:59:05.724Z,9.15
2024-04-24T03:01:36.153Z,9.60
2024-04-24T03:04:06.530Z,9.10
2024-04-24T03:06:36.856Z,9.40
2024-04-24T03:09:07.315Z,9.63
2024-04-24T03:11:37.813Z,9.60
2024-04-24T03:14:11.318Z,8.85
2024-04-24T03:16:41.727Z,9.82
2024-04-24T03:19:12.041Z,9.75
2024-04-24T03:21:42.364Z,10.18
2024-04-24T03:24:12.698Z,10.00
2024-04-24T03:26:43.113Z,10.10
2024-04-24T03:29:18.966Z,9.77
2024-04-24T03:31:51.316Z,10.73
2024-04-24T03:34:21.785Z,12.15
2024-04-24T03:36:52.451Z,12.18
2024-04-24T03:39:22.756Z,11.15
2024-04-24T03:41:53.131Z,11.07
2024-04-24T03:44:26.203Z,11.70
2024-04-24T03:46:57.900Z,10.07
2024-04-24T03:49:28.289Z,10.75
2024-04-24T03:51:58.665Z,10.55
2024-04-24T03:54:29.057Z,10.77
2024-04-24T03:57:04.613Z,10.63
2024-04-24T03:59:37.591Z,10.60
2024-04-24T04:02:07.981Z,10.85
2024-04-24T04:04:38.282Z,10.93
2024-04-24T04:07:08.672Z,10.95
2024-04-24T04:09:38.976Z,10.63
2024-04-24T04:12:13.075Z,10.98
2024-04-24T04:14:46.520Z,11.70
2024-04-24T04:17:16.935Z,11.32
2024-04-24T04:19:47.445Z,11.25
2024-04-24T04:22:18.618Z,10.75
2024-04-24T04:24:49.255Z,11.20
2024-04-24T04:27:19.564Z,10.68
2024-04-24T04:29:52.563Z,10.65
2024-04-24T04:32:23.085Z,10.20
2024-04-24T04:34:53.505Z,10.23
2024-04-24T04:37:23.869Z,10.02
2024-04-24T04:39:54.358Z,8.90
2024-04-24T04:42:24.713Z,9.13
2024-04-24T04:44:58.482Z,9.52
2024-04-24T04:47:29.143Z,10.35
2024-04-24T04:49:59.608Z,9.18
2024-04-24T04:52:29.984Z,9.05
2024-04-24T04:55:00.775Z,8.48
2024-04-24T04:57:31.197Z,9.27
2024-04-24T05:00:04.306Z,8.68
2024-04-24T05:02:34.742Z,8.25
2024-04-24T05:05:05.185Z,8.20
2024-04-24T05:07:35.528Z,7.72
2024-04-24T05:10:05.913Z,8.60
2024-04-24T05:12:36.213Z,8.07
2024-04-24T05:15:10.198Z,8.45
2024-04-24T05:17:40.780Z,8.65
2024-04-24T05:20:11.901Z,7.90
2024-04-24T05:22:48.405Z,8.32
2024-04-24T05:25:20.352Z,8.00
2024-04-24T05:28:06.466Z,7.72
2024-04-24T05:30:39.448Z,6.85
2024-04-24T05:33:09.902Z,6.72
2024-04-24T05:35:41.799Z,6.35
2024-04-24T05:38:12.145Z,6.75
2024-04-24T05:40:42.589Z,6.35
2024-04-24T05:43:15.317Z,6.47
2024-04-24T05:45:50.466Z,6.65
2024-04-24T05:48:20.812Z,6.50
2024-04-24T05:50:51.148Z,6.32
2024-04-24T05:53:21.630Z,5.63
2024-04-24T05:55:52.126Z,6.00
2024-04-24T05:58:22.533Z,5.32
2024-04-24T06:01:10.393Z,5.10
2024-04-24T06:03:40.872Z,5.60
2024-04-24T06:06:11.413Z,5.13
2024-04-24T06:08:41.792Z,5.15
2024-04-24T06:11:14.053Z,4.55
2024-04-24T06:13:44.496Z,5.40
2024-04-24T06:16:17.439Z,4.80
2024-04-24T06:18:47.956Z,4.63
2024-04-24T06:21:18.355Z,4.50
2024-04-24T06:23:48.710Z,4.55
2024-04-24T06:26:19.106Z,3.92
2024-04-24T06:28:49.997Z,3.83
2024-04-24T06:31:22.992Z,3.13
2024-04-24T06:33:53.419Z,3.42
2024-04-24T06:36:23.967Z,3.13
2024-04-24T06:38:54.374Z,3.30
2024-04-24T06:41:24.752Z,2.80
2024-04-24T06:43:55.821Z,2.90
2024-04-24T06:46:29.009Z,2.60
2024-04-24T06:48:59.489Z,2.38
2024-04-24T06:51:29.869Z,3.25
2024-04-24T06:54:00.256Z,2.53
2024-04-24T06:56:30.620Z,2.33
2024-04-24T06:59:01.270Z,2.55
2024-04-24T07:01:34.384Z,2.10
2024-04-24T07:04:04.789Z,2.42
2024-04-24T07:06:35.226Z,2.70
2024-04-24T07:09:05.538Z,2.17
2024-04-24T07:11:36.014Z,2.00
2024-04-24T07:14:06.641Z,1.90
2024-04-24T07:16:42.473Z,1.77
2024-04-24T07:19:14.795Z,2.13
2024-04-24T07:21:45.387Z,2.10
2024-04-24T07:24:15.862Z,2.17
2024-04-24T07:26:46.192Z,2.25
2024-04-24T07:29:16.574Z,2.80
2024-04-24T07:31:49.694Z,2.38
2024-04-24T07:34:20.089Z,2.28
2024-04-24T07:36:50.378Z,2.72
2024-04-24T07:39:20.980Z,2.95
2024-04-24T07:41:51.330Z,2.85
2024-04-24T07:44:21.815Z,3.10
2024-04-24T07:46:55.024Z,2.78
2024-04-24T07:49:25.489Z,2.95
2024-04-24T07:51:55.842Z,2.65
2024-04-24T07:54:26.233Z,2.70
2024-04-24T07:56:56.611Z,2.58
2024-04-24T07:59:27.090Z,2.28
2024-04-24T08:02:00.548Z,2.33
2024-04-24T08:04:30.987Z,2.20
2024-04-24T08:07:01.605Z,1.92
2024-04-24T08:09:31.967Z,1.55
2024-04-24T08:12:04.694Z,1.95
2024-04-24T08:14:36.639Z,1.80
2024-04-24T08:17:09.896Z,1.77
2024-04-24T08:19:40.246Z,1.40
2024-04-24T08:22:10.610Z,1.00
2024-04-24T08:24:40.960Z,1.20
2024-04-24T08:27:11.360Z,1.10
2024-04-24T08:29:41.684Z,1.05
2024-04-24T08:32:14.808Z,1.00
2024-04-24T08:34:45.189Z,0.73
2024-04-24T08:37:15.568Z,1.02
2024-04-24T08:39:45.894Z,0.82
2024-04-24T08:42:16.777Z,1.00
2024-04-24T08:44:49.439Z,0.90
2024-04-24T08:47:24.508Z,1.10
2024-04-24T08:49:55.149Z,1.00
2024-04-24T08:52:26.320Z,1.02
2024-04-24T08:55:01.519Z,1.38
2024-04-24T08:57:32.914Z,0.65
2024-04-24T09:00:05.317Z,0.70
2024-04-24T09:02:45.280Z,0.80
2024-04-24T09:05:17.366Z,0.68
2024-04-24T09:07:48.698Z,0.80
2024-04-24T09:10:19.943Z,1.05
2024-04-24T09:12:51.705Z,0.75
2024-04-24T09:15:23.108Z,0.70
2024-04-24T09:17:56.337Z,0.80
2024-04-24T09:20:28.170Z,0.75
2024-04-24T09:22:58.553Z,0.85
2024-04-24T09:25:29.068Z,0.93
2024-04-24T09:27:59.472Z,0.80
2024-04-24T09:30:30.552Z,0.70
2024-04-24T09:33:03.701Z,1.00
2024-04-24T09:35:34.327Z,1.13
2024-04-24T09:38:04.956Z,1.17
2024-04-24T09:40:36.676Z,1.67
2024-04-24T09:43:09.880Z,1.73
2024-04-24T09:48:28.511Z,1.27
2024-04-24T09:50:59.970Z,1.40
2024-04-24T09:53:30.510Z,1.20
2024-04-24T09:56:04.383Z,1.20
2024-04-24T09:58:38.870Z,2.00
2024-04-24T10:04:04.850Z,0.73
2024-04-24T10:06:38.408Z,0.80
2024-04-24T10:09:10.433Z,1.10
2024-04-24T10:11:46.074Z,0.95
2024-04-24T10:14:19.559Z,1.20
2024-04-24T10:16:52.304Z,1.10
2024-04-24T10:19:26.608Z,1.30
2024-04-24T10:21:57.244Z,0.80
2024-04-24T10:24:28.325Z,0.60
2024-04-24T10:27:00.256Z,1.00
2024-04-24T10:29:31.213Z,1.58
2024-04-24T10:32:04.696Z,2.10
2024-04-24T10:34:38.714Z,1.60
2024-04-24T10:37:09.227Z,1.90
2024-04-24T10:39:46.025Z,1.60
2024-04-24T10:42:16.680Z,1.50
2024-04-24T10:44:47.643Z,1.60
2024-04-24T10:47:18.458Z,1.25
2024-04-24T10:49:59.626Z,1.00
2024-04-24T10:52:30.070Z,0.90
2024-04-24T10:55:12.408Z,0.90
2024-04-24T10:57:49.250Z,1.20
2024-04-24T11:00:34.380Z,1.08
2024-04-24T11:03:24.160Z,1.80
2024-04-24T11:05:57.420Z,1.65
2024-04-24T11:08:30.072Z,2.00
2024-04-24T11:11:01.071Z,1.73
2024-04-24T11:13:31.532Z,2.17
2024-04-24T11:16:10.417Z,1.70
2024-04-24T11:18:41.770Z,1.38
2024-04-24T11:21:25.308Z,1.40
2024-04-24T11:23:57.671Z,1.20
2024-04-24T11:26:35.578Z,1.00
2024-04-24T11:29:07.616Z,0.90
2024-04-24T11:31:44.529Z,0.80
2024-04-24T11:34:15.738Z,0.90
2024-04-24T11:36:49.725Z,0.82
2024-04-24T11:39:22.232Z,1.00
2024-04-24T11:41:53.405Z,0.95
2024-04-24T11:44:24.091Z,0.80
2024-04-24T11:46:54.775Z,1.02
2024-04-24T11:49:25.726Z,1.02
2024-04-24T11:51:58.931Z,0.73
2024-04-24T11:54:32.016Z,1.02
2024-04-24T11:57:15.696Z,0.95
2024-04-24T11:59:46.923Z,0.88
2024-04-24T12:02:19.746Z,1.00
2024-04-24T12:04:51.335Z,1.08
2024-04-24T12:07:29.365Z,1.08
2024-04-24T12:09:59.987Z,1.15
2024-04-24T12:12:30.887Z,0.95
2024-04-24T12:15:01.340Z,1.10
2024-04-24T12:17:31.862Z,1.10
2024-04-24T12:20:04.673Z,1.23
2024-04-24T12:22:39.102Z,1.00
2024-04-24T12:25:09.713Z,1.20
2024-04-24T12:27:40.053Z,1.17
2024-04-24T12:30:11.402Z,1.33
2024-04-24T12:32:41.947Z,1.10
2024-04-24T12:35:12.355Z,0.88
2024-04-24T12:37:45.352Z,0.73
2024-04-24T12:40:15.799Z,0.80
2024-04-24T12:42:46.413Z,1.00
2024-04-24T12:45:16.939Z,0.90
2024-04-24T12:47:47.563Z,1.00
2024-04-24T12:50:19.411Z,1.27
2024-04-24T12:52:52.482Z,1.15
2024-04-24T12:55:20.170Z,1.00
2024-04-24T12:57:50.501Z,1.20
2024-04-24T13:00:21.195Z,1.35
2024-04-24T13:02:52.123Z,0.80
2024-04-24T13:05:22.634Z,1.17
2024-04-24T13:07:55.689Z,1.00
2024-04-24T13:10:26.538Z,1.10
2024-04-24T13:12:56.958Z,0.73
2024-04-24T13:15:27.404Z,0.82
2024-04-24T13:17:58.090Z,1.17
2024-04-24T13:20:28.831Z,1.35
2024-04-24T13:23:02.334Z,1.02
2024-04-24T13:25:32.723Z,1.10
2024-04-24T13:28:00.536Z,1.20
2024-04-24T13:30:31.079Z,1.20
2024-04-24T13:33:01.623Z,1.55
2024-04-24T13:35:32.132Z,1.13
2024-04-24T13:38:05.262Z,0.70
2024-04-24T13:40:35.848Z,0.80
2024-04-24T13:43:06.403Z,1.15
2024-04-24T13:48:07.843Z,1.17
2024-04-24T13:50:38.304Z,1.95
2024-04-24T13:53:11.686Z,1.17
2024-04-24T13:55:42.186Z,1.42
2024-04-24T13:58:12.619Z,1.23
2024-04-24T14:00:43.083Z,1.33
2024-04-24T14:03:15.145Z,1.60
2024-04-24T14:05:49.731Z,1.05
2024-04-24T14:08:23.445Z,1.60
2024-04-24T14:10:53.993Z,1.23
2024-04-24T14:13:24.394Z,1.40
2024-04-24T14:15:54.774Z,1.30
2024-04-24T14:18:27.303Z,1.25
2024-04-24T14:20:58.818Z,0.95
2024-04-24T14:23:31.990Z,1.15
2024-04-24T14:26:02.427Z,0.90
2024-04-24T14:28:32.868Z,0.98
2024-04-24T14:31:04.991Z,0.98
2024-04-24T14:33:35.519Z,0.82
2024-04-24T14:36:06.185Z,1.00
2024-04-24T14:38:39.299Z,1.00
2024-04-24T14:41:13.788Z,1.08
2024-04-24T14:43:44.738Z,0.82
2024-04-24T14:46:15.876Z,1.25
2024-04-24T14:48:46.497Z,0.82
2024-04-24T14:51:16.887Z,0.80
2024-04-24T14:53:50.071Z,1.13
2024-04-24T14:56:20.606Z,0.95
2024-04-24T14:58:51.027Z,0.80
2024-04-24T15:01:21.542Z,0.90
2024-04-24T15:03:51.958Z,0.60
2024-04-24T15:06:22.675Z,0.60
2024-04-24T15:08:55.757Z,1.55
2024-04-24T15:11:26.523Z,1.00
2024-04-24T15:13:56.979Z,0.90
2024-04-24T15:16:27.777Z,0.88
2024-04-24T15:18:58.212Z,0.70
2024-04-24T15:21:28.758Z,0.60
2024-04-24T15:24:01.977Z,0.90
2024-04-24T15:26:32.694Z,0.93
2024-04-24T15:29:03.395Z,0.73
2024-04-24T15:31:33.840Z,0.90
2024-04-24T15:34:04.647Z,0.90
2024-04-24T15:36:35.454Z,0.90
2024-04-24T15:39:09.824Z,0.70
2024-04-24T15:41:42.232Z,0.73
2024-04-24T15:44:12.736Z,0.60
2024-04-24T15:46:43.207Z,0.88
2024-04-24T15:49:14.231Z,0.60
2024-04-24T15:51:45.731Z,0.50
2024-04-24T15:54:18.807Z,0.60
2024-04-24T15:56:49.422Z,0.63
2024-04-24T15:59:19.871Z,0.68
2024-04-24T16:01:50.272Z,0.65
2024-04-24T16:04:20.662Z,0.70
2024-04-24T16:06:51.015Z,0.65
2024-04-24T16:09:24.017Z,0.80
2024-04-24T16:11:54.526Z,0.68
2024-04-24T16:14:25.011Z,0.70
2024-04-24T16:16:55.740Z,0.80
2024-04-24T16:19:26.267Z,0.65
2024-04-24T16:21:56.737Z,0.70
2024-04-24T16:24:29.848Z,0.43
2024-04-24T16:27:00.205Z,0.60
2024-04-24T16:29:30.644Z,0.77
2024-04-24T16:32:01.133Z,0.93
2024-04-24T16:34:32.437Z,0.80
2024-04-24T16:37:03.531Z,0.82
2024-04-24T16:39:36.776Z,0.60
2024-04-24T16:42:07.498Z,0.80
2024-04-24T16:44:38.114Z,0.70
2024-04-24T16:47:08.780Z,0.60
2024-04-24T16:49:40.580Z,0.55
2024-04-24T16:52:13.746Z,0.60
2024-04-24T16:54:46.827Z,0.45
2024-04-24T16:57:17.420Z,0.40
2024-04-24T16:59:47.869Z,0.68
2024-04-24T17:02:18.233Z,0.50
2024-04-24T17:04:48.598Z,0.82
2024-04-24T17:07:21.161Z,0.47
2024-04-24T17:09:56.363Z,0.57
2024-04-24T17:12:26.769Z,1.40
2024-04-24T17:14:57.149Z,0.82
2024-04-24T17:17:27.725Z,0.50
2024-04-24T17:19:58.235Z,0.45
2024-04-24T17:22:28.844Z,0.90
2024-04-24T17:25:01.946Z,0.80
2024-04-24T17:27:33.611Z,0.55
2024-04-24T17:30:05.345Z,0.65
2024-04-24T17:32:35.812Z,0.60
2024-04-24T17:35:06.271Z,0.93
2024-04-24T17:37:36.857Z,0.80
2024-04-24T17:40:12.187Z,0.70
2024-04-24T17:42:42.770Z,0.73
2024-04-24T17:45:13.132Z,0.70
2024-04-24T17:47:44.169Z,0.50
2024-04-24T17:50:16.929Z,0.60
2024-04-24T17:52:47.434Z,0.50
2024-04-24T17:55:20.510Z,0.75
2024-04-24T17:57:50.852Z,0.75
2024-04-24T18:00:22.224Z,0.55
2024-04-24T18:02:52.614Z,0.70
2024-04-24T18:05:23.893Z,0.50
2024-04-24T18:07:54.977Z,0.60
2024-04-24T18:10:28.825Z,0.50
2024-04-24T18:12:59.183Z,0.80
2024-04-24T18:15:29.600Z,1.10
2024-04-24T18:18:02.717Z,0.77
2024-04-24T18:20:33.670Z,0.70
2024-04-24T18:23:04.179Z,0.70
2024-04-24T18:25:37.332Z,0.68
2024-04-24T18:28:08.841Z,0.80
2024-04-24T18:30:39.392Z,0.57
2024-04-24T18:33:09.906Z,0.80
2024-04-24T18:35:40.390Z,0.60
2024-04-24T18:38:10.861Z,0.80
2024-04-24T18:40:44.256Z,0.73
2024-04-24T18:43:14.601Z,0.75
2024-04-24T18:45:46.884Z,0.90
2024-04-24T18:48:17.709Z,0.65
2024-04-24T18:50:48.223Z,0.63
2024-04-24T18:53:18.689Z,0.80
2024-04-24T18:55:51.789Z,0.80
2024-04-24T18:58:22.141Z,1.20
2024-04-24T19:00:57.683Z,0.80
2024-04-24T19:03:28.173Z,0.70
2024-04-24T19:05:58.544Z,0.70
2024-04-24T19:08:29.064Z,0.68
2024-04-24T19:11:02.451Z,0.70
2024-04-24T19:13:32.842Z,0.65
2024-04-24T19:16:03.223Z,0.60
2024-04-24T19:18:33.598Z,0.75
2024-04-24T19:21:07.717Z,0.70
2024-04-24T19:23:38.355Z,0.70
2024-04-24T19:26:11.487Z,0.93
2024-04-24T19:28:41.859Z,0.70
2024-04-24T19:31:23.321Z,0.80
2024-04-24T19:33:58.141Z,1.40
2024-04-24T19:36:28.824Z,1.00
2024-04-24T19:39:00.223Z,1.00
2024-04-24T19:41:33.415Z,1.20
2024-04-24T19:44:06.775Z,1.40
2024-04-24T19:46:38.464Z,1.00
2024-04-24T19:49:08.823Z,1.42
2024-04-24T19:51:40.221Z,1.30
2024-04-24T19:54:10.559Z,1.00
2024-04-24T19:56:44.926Z,0.90
2024-04-24T19:59:15.484Z,0.98
2024-04-24T20:01:49.399Z,1.20
2024-04-24T20:04:20.223Z,1.50
2024-04-24T20:06:50.937Z,1.30
2024-04-24T20:09:21.366Z,1.50
2024-04-24T20:11:54.811Z,1.23
2024-04-24T20:14:25.296Z,1.17
2024-04-24T20:16:55.685Z,1.20
2024-04-24T20:19:26.453Z,1.20
2024-04-24T20:21:56.753Z,1.42
2024-04-24T20:24:27.123Z,1.40
2024-04-24T20:27:00.218Z,1.40
2024-04-24T20:29:30.674Z,1.85
2024-04-24T20:32:01.284Z,1.80
2024-04-24T20:34:31.678Z,1.60
2024-04-24T20:37:02.210Z,1.30
2024-04-24T20:39:29.891Z,2.05
2024-04-24T20:42:02.960Z,1.60
2024-04-24T20:44:33.523Z,1.40
2024-04-24T20:47:04.070Z,1.23
2024-04-24T20:49:34.546Z,1.48
2024-04-24T20:52:04.906Z,2.58
2024-04-24T20:54:35.258Z,1.90
2024-04-24T20:57:08.383Z,1.95
2024-04-24T20:59:38.879Z,2.35
2024-04-24T21:02:10.538Z,2.65
2024-04-24T21:04:41.023Z,2.65
2024-04-24T21:07:11.477Z,2.15
2024-04-24T21:09:44.065Z,2.10
2024-04-24T21:12:18.877Z,2.25
2024-04-24T21:14:51.494Z,1.98
2024-04-24T21:17:30.204Z,2.20
2024-04-24T21:20:00.720Z,2.25
2024-04-24T21:22:31.682Z,2.40
2024-04-24T21:25:02.033Z,2.22
2024-04-24T21:27:35.029Z,2.00
2024-04-24T21:30:05.367Z,3.25
2024-04-24T21:32:35.839Z,2.47
2024-04-24T21:35:06.250Z,2.65
2024-04-24T21:37:37.357Z,1.90
2024-04-24T21:40:08.661Z,2.40
2024-04-24T21:42:41.687Z,2.10
2024-04-24T21:45:12.119Z,2.40
2024-04-24T21:47:42.597Z,2.00
2024-04-24T21:50:13.119Z,1.70
2024-04-24T21:52:43.589Z,1.75
2024-04-24T21:55:14.037Z,2.20
2024-04-24T21:57:47.089Z,2.25
2024-04-24T22:00:17.670Z,3.00
2024-04-24T22:02:48.260Z,2.40
2024-04-24T22:05:19.043Z,2.10
2024-04-24T22:07:49.388Z,2.30
2024-04-24T22:10:19.929Z,2.33
2024-04-24T22:12:52.947Z,2.30
2024-04-24T22:15:23.294Z,2.53
2024-04-24T22:17:53.816Z,2.97
2024-04-24T22:20:24.532Z,2.78
2024-04-24T22:22:55.300Z,2.65
2024-04-24T22:25:25.756Z,3.00
2024-04-24T22:27:58.824Z,2.88
2024-04-24T22:30:29.589Z,3.53
2024-04-24T22:33:00.027Z,2.90
2024-04-24T22:35:30.520Z,2.80
2024-04-24T22:38:01.127Z,3.35
2024-04-24T22:40:31.498Z,3.03
2024-04-24T22:43:04.621Z,2.70
2024-04-24T22:45:34.974Z,2.95
2024-04-24T22:48:05.392Z,3.03
2024-04-24T22:50:36.032Z,3.13
2024-04-24T22:53:06.564Z,2.95
2024-04-24T22:55:37.241Z,3.50
2024-04-24T22:58:10.357Z,3.00
2024-04-24T23:00:40.730Z,3.33
2024-04-24T23:03:11.416Z,2.90
2024-04-24T23:05:41.955Z,3.83
2024-04-24T23:08:13.311Z,3.75
2024-04-24T23:10:45.761Z,4.00
2024-04-24T23:13:18.841Z,4.15
2024-04-24T23:15:49.337Z,4.22
2024-04-24T23:18:19.798Z,4.43
2024-04-24T23:20:50.363Z,4.22
2024-04-24T23:23:20.775Z,4.47
2024-04-24T23:25:51.199Z,4.65
2024-04-24T23:28:24.242Z,4.07
2024-04-24T23:30:54.605Z,3.10
2024-04-24T23:33:25.093Z,1.88
2024-04-24T23:35:55.458Z,1.83
2024-04-24T23:38:25.843Z,1.83
2024-04-24T23:40:56.343Z,2.00
2024-04-24T23:43:29.362Z,2.55
2024-04-24T23:46:02.042Z,2.75
2024-04-24T23:48:33.752Z,3.10
2024-04-24T23:51:04.248Z,3.50
2024-04-24T23:53:36.186Z,4.18
2024-04-24T23:56:07.487Z,3.70
2024-04-24T23:58:40.566Z,4.38
